createdAt,value
2023-03-05T00:00:48.002Z,101079.28
2023-03-05T00:03:14.446Z,101070.69
2023-03-05T00:05:40.898Z,101079.38
2023-03-05T00:08:07.427Z,101078.78
2023-03-05T00:10:33.916Z,101066.63
2023-03-05T00:13:00.314Z,101060.16
2023-03-05T00:15:26.723Z,101064.41
2023-03-05T00:17:53.147Z,101059.03
2023-03-05T00:20:19.557Z,101057.47
2023-03-05T00:22:45.971Z,101046.56
2023-03-05T00:25:12.385Z,101044.97
2023-03-05T00:27:39.402Z,101046.84
2023-03-05T00:30:06.503Z,101044.28
2023-03-05T00:32:32.988Z,101047.63
2023-03-05T00:34:59.422Z,101052.78
2023-03-05T00:37:25.843Z,101044.19
2023-03-05T00:39:52.288Z,101045.88
2023-03-05T00:42:18.693Z,101033.91
2023-03-05T00:44:45.134Z,101030.47
2023-03-05T00:47:11.739Z,101033.81
2023-03-05T00:49:39.198Z,101024.91
2023-03-05T00:52:05.625Z,101031.25
2023-03-05T00:54:32.030Z,101020.88
2023-03-05T00:56:58.415Z,101023.44
2023-03-05T00:59:24.842Z,101021.34
2023-03-05T01:01:51.266Z,101018.00
2023-03-05T01:04:17.815Z,101019.75
2023-03-05T01:06:46.126Z,101020.66
2023-03-05T01:09:12.642Z,101009.41
2023-03-05T01:11:39.811Z,101014.34
2023-03-05T01:14:06.234Z,101003.19
2023-03-05T01:16:32.662Z,101004.75
2023-03-05T01:18:59.125Z,100999.72
2023-03-05T01:21:25.708Z,101003.97
2023-03-05T01:23:52.321Z,100999.31
2023-03-05T01:26:18.749Z,100996.41
2023-03-05T01:28:45.182Z,101005.28
2023-03-05T01:31:11.994Z,101002.06
2023-03-05T01:33:38.779Z,100993.38
2023-03-05T01:36:14.872Z,100997.63
2023-03-05T01:38:42.849Z,100990.38
2023-03-05T01:41:10.150Z,100989.38
2023-03-05T01:43:36.752Z,100977.34
2023-03-05T01:46:37.362Z,100977.34
2023-03-05T01:49:12.833Z,100970.34
2023-03-05T01:52:00.628Z,100959.78
2023-03-05T01:54:31.635Z,100958.56
2023-03-05T01:56:59.650Z,100962.91
2023-03-05T01:59:26.998Z,100950.06
2023-03-05T02:01:55.979Z,100950.84
2023-03-05T02:04:24.433Z,100943.94
2023-03-05T02:06:50.833Z,100930.34
2023-03-05T02:09:17.284Z,100939.72
2023-03-05T02:11:43.912Z,100947.41
2023-03-05T02:14:10.551Z,100940.59
2023-03-05T02:16:38.240Z,100942.19
2023-03-05T02:19:06.891Z,100930.16
2023-03-05T02:21:43.023Z,100931.91
2023-03-05T02:24:17.941Z,100920.88
2023-03-05T02:26:45.075Z,100920.88
2023-03-05T02:29:15.532Z,100916.75
2023-03-05T02:31:42.117Z,100913.28
2023-03-05T02:34:08.584Z,100913.97
2023-03-05T02:36:34.995Z,100917.22
2023-03-05T02:39:01.568Z,100912.78
2023-03-05T02:41:28.108Z,100919.69
2023-03-05T02:43:54.526Z,100918.13
2023-03-05T02:46:20.957Z,100914.56
2023-03-05T02:48:47.455Z,100906.78
2023-03-05T02:51:14.106Z,100901.53
2023-03-05T02:53:40.533Z,100911.78
2023-03-05T02:56:07.315Z,100907.66
2023-03-05T02:58:33.884Z,100920.38
2023-03-05T03:01:00.364Z,100902.19
2023-03-05T03:03:27.039Z,100905.63
2023-03-05T03:05:53.532Z,100903.88
2023-03-05T03:08:19.966Z,100903.06
2023-03-05T03:10:46.391Z,100898.97
2023-03-05T03:13:12.805Z,100898.84
2023-03-05T03:15:40.359Z,100902.28
2023-03-05T03:18:06.875Z,100898.97
2023-03-05T03:20:34.865Z,100905.63
2023-03-05T03:23:01.869Z,100895.38
2023-03-05T03:25:28.521Z,100898.19
2023-03-05T03:27:54.931Z,100891.94
2023-03-05T03:30:21.390Z,100885.13
2023-03-05T03:32:47.838Z,100886.91
2023-03-05T03:35:14.297Z,100878.66
2023-03-05T03:37:40.870Z,100866.63
2023-03-05T03:40:07.972Z,100871.09
2023-03-05T03:42:34.397Z,100865.06
2023-03-05T03:45:02.220Z,100861.72
2023-03-05T03:47:29.740Z,100854.13
2023-03-05T03:49:56.276Z,100856.78
2023-03-05T03:52:23.057Z,100848.31
2023-03-05T03:54:52.224Z,100846.53
2023-03-05T03:57:19.114Z,100841.31
2023-03-05T03:59:46.045Z,100839.44
2023-03-05T04:02:12.524Z,100832.03
2023-03-05T04:04:38.978Z,100843.09
2023-03-05T04:07:05.479Z,100831.94
2023-03-05T04:09:31.899Z,100836.97
2023-03-05T04:11:58.310Z,100838.75
2023-03-05T04:14:26.570Z,100830.16
2023-03-05T04:16:53.191Z,100840.41
2023-03-05T04:19:20.734Z,100827.59
2023-03-05T04:21:47.168Z,100835.28
2023-03-05T04:24:13.603Z,100824.16
2023-03-05T04:26:40.012Z,100819.63
2023-03-05T04:29:06.434Z,100823.84
2023-03-05T04:31:32.927Z,100818.81
2023-03-05T04:33:59.838Z,100812.72
2023-03-05T04:36:26.381Z,100812.03
2023-03-05T04:38:52.817Z,100817.34
2023-03-05T04:41:19.256Z,100807.19
2023-03-05T04:43:45.672Z,100808.06
2023-03-05T04:46:12.163Z,100808.88
2023-03-05T04:48:38.574Z,100796.84
2023-03-05T04:51:05.284Z,100793.47
2023-03-05T04:53:31.702Z,100795.25
2023-03-05T04:56:01.361Z,100790.91
2023-03-05T04:58:27.773Z,100793.28
2023-03-05T05:00:54.188Z,100788.38
2023-03-05T05:03:20.630Z,100791.72
2023-03-05T05:05:54.311Z,100793.47
2023-03-05T05:08:20.756Z,100784.13
2023-03-05T05:11:04.806Z,100778.09
2023-03-05T05:13:32.148Z,100774.75
2023-03-05T05:15:58.825Z,100786.78
2023-03-05T05:18:25.919Z,100777.31
2023-03-05T05:20:52.358Z,100779.88
2023-03-05T05:23:19.008Z,100774.75
2023-03-05T05:25:45.696Z,100772.19
2023-03-05T05:28:12.572Z,100773.66
2023-03-05T05:30:39.170Z,100767.56
2023-03-05T05:33:05.610Z,100772.59
2023-03-05T05:35:32.071Z,100770.03
2023-03-05T05:37:58.506Z,100776.81
2023-03-05T05:40:24.916Z,100769.78
2023-03-05T05:42:51.343Z,100774.13
2023-03-05T05:45:17.945Z,100769.00
2023-03-05T05:47:44.399Z,100771.28
2023-03-05T05:50:11.436Z,100773.72
2023-03-05T05:52:37.842Z,100775.50
2023-03-05T05:55:04.579Z,100778.06
2023-03-05T05:57:31.005Z,100778.66
2023-03-05T05:59:57.428Z,100773.91
2023-03-05T06:02:24.023Z,100765.22
2023-03-05T06:04:50.461Z,100765.91
2023-03-05T06:07:16.895Z,100760.38
2023-03-05T06:09:43.329Z,100762.25
2023-03-05T06:12:09.776Z,100764.81
2023-03-05T06:14:36.184Z,100764.03
2023-03-05T06:17:02.639Z,100770.25
2023-03-05T06:19:29.037Z,100770.44
2023-03-05T06:21:55.497Z,100772.44
2023-03-05T06:24:22.353Z,100762.19
2023-03-05T06:26:49.161Z,100765.84
2023-03-05T06:29:15.882Z,100765.25
2023-03-05T06:31:42.425Z,100762.09
2023-03-05T06:34:08.874Z,100772.69
2023-03-05T06:36:35.361Z,100762.53
2023-03-05T06:39:01.852Z,100771.41
2023-03-05T06:41:30.242Z,100765.56
2023-03-05T06:43:57.423Z,100776.94
2023-03-05T06:46:28.885Z,100764.13
2023-03-05T06:48:57.141Z,100766.09
2023-03-05T06:51:31.706Z,100761.25
2023-03-05T06:54:04.417Z,100759.13
2023-03-05T06:56:31.541Z,100768.78
2023-03-05T06:58:58.000Z,100754.28
2023-03-05T07:01:24.551Z,100762.25
2023-03-05T07:03:52.446Z,100758.81
2023-03-05T07:06:19.584Z,100764.25
2023-03-05T07:08:46.040Z,100764.44
2023-03-05T07:11:16.932Z,100760.41
2023-03-05T07:13:43.847Z,100777.19
2023-03-05T07:16:14.869Z,100771.47
2023-03-05T07:18:41.335Z,100768.09
2023-03-05T07:21:08.605Z,100782.00
2023-03-05T07:23:36.071Z,100778.78
2023-03-05T07:26:03.646Z,100770.47
2023-03-05T07:28:30.289Z,100773.13
2023-03-05T07:31:02.264Z,100773.84
2023-03-05T07:33:28.754Z,100772.06
2023-03-05T07:35:55.305Z,100765.81
2023-03-05T07:38:22.168Z,100769.88
2023-03-05T07:40:48.796Z,100762.97
2023-03-05T07:43:15.410Z,100756.25
2023-03-05T07:45:43.018Z,100760.59
2023-03-05T07:48:13.905Z,100761.19
2023-03-05T07:50:40.313Z,100767.31
2023-03-05T07:53:06.750Z,100767.13
2023-03-05T07:55:33.174Z,100753.31
2023-03-05T07:57:59.612Z,100752.41
2023-03-05T08:00:26.043Z,100753.22
2023-03-05T08:02:52.550Z,100748.38
2023-03-05T08:05:18.993Z,100747.56
2023-03-05T08:07:45.429Z,100749.53
2023-03-05T08:10:11.827Z,100744.41
2023-03-05T08:12:38.263Z,100747.19
2023-03-05T08:15:05.028Z,100742.25
2023-03-05T08:17:31.440Z,100733.75
2023-03-05T08:20:00.140Z,100735.53
2023-03-05T08:22:27.101Z,100733.84
2023-03-05T08:24:53.530Z,100729.44
2023-03-05T08:27:19.937Z,100734.56
2023-03-05T08:29:46.403Z,100734.56
2023-03-05T08:32:12.823Z,100736.03
2023-03-05T08:34:39.272Z,100730.22
2023-03-05T08:37:07.676Z,100724.91
2023-03-05T08:39:34.090Z,100732.38
2023-03-05T08:42:00.567Z,100719.53
2023-03-05T08:44:27.000Z,100725.09
2023-03-05T08:46:53.425Z,100719.34
2023-03-05T08:49:19.927Z,100722.91
2023-03-05T08:51:46.330Z,100720.03
2023-03-05T08:54:12.838Z,100717.75
2023-03-05T08:56:39.385Z,100715.38
2023-03-05T08:59:06.132Z,100716.56
2023-03-05T09:01:32.865Z,100716.66
2023-03-05T09:03:59.841Z,100713.78
2023-03-05T09:06:26.836Z,100716.53
2023-03-05T09:08:54.003Z,100711.75
2023-03-05T09:11:20.842Z,100700.34
2023-03-05T09:13:47.303Z,100700.69
2023-03-05T09:16:16.462Z,100693.00
2023-03-05T09:18:43.766Z,100693.88
2023-03-05T09:21:13.481Z,100690.44
2023-03-05T09:23:40.513Z,100686.25
2023-03-05T09:26:08.665Z,100689.75
2023-03-05T09:28:35.326Z,100694.31
2023-03-05T09:31:03.872Z,100695.84
2023-03-05T09:33:32.027Z,100701.97
2023-03-05T09:35:59.541Z,100693.69
2023-03-05T09:38:26.208Z,100688.28
2023-03-05T09:41:07.736Z,100690.94
2023-03-05T09:44:12.186Z,100687.41
2023-03-05T09:47:02.854Z,100688.00
2023-03-05T09:49:46.060Z,100687.78
2023-03-05T09:52:21.347Z,100689.28
2023-03-05T09:54:55.483Z,100699.25
2023-03-05T09:57:55.290Z,100697.06
2023-03-05T10:00:33.500Z,100685.81
2023-03-05T10:03:05.858Z,100692.34
2023-03-05T10:06:02.340Z,100683.06
2023-03-05T10:08:44.993Z,100685.22
2023-03-05T10:11:22.359Z,100677.53
2023-03-05T10:13:50.571Z,100676.88
2023-03-05T10:17:09.446Z,100671.94
2023-03-05T10:19:51.864Z,100676.97
2023-03-05T10:22:21.523Z,100685.22
2023-03-05T10:25:04.123Z,100691.56
2023-03-05T10:27:40.172Z,100692.34
2023-03-05T10:30:17.753Z,100666.28
2023-03-05T10:32:55.809Z,100661.66
2023-03-05T10:36:01.539Z,100649.84
2023-03-05T10:38:53.457Z,100653.66
2023-03-05T10:41:33.416Z,100655.31
2023-03-05T10:44:15.684Z,100650.88
2023-03-05T10:46:42.899Z,100648.19
2023-03-05T10:49:32.169Z,100651.59
2023-03-05T10:52:09.703Z,100641.91
2023-03-05T10:54:37.540Z,100637.84
2023-03-05T10:57:22.802Z,100640.66
2023-03-05T10:59:49.118Z,100638.66
2023-03-05T11:02:16.392Z,100641.59
2023-03-05T11:04:42.854Z,100641.25
2023-03-05T11:07:15.415Z,100638.69
2023-03-05T11:09:42.941Z,100642.16
2023-03-05T11:12:23.462Z,100640.63
2023-03-05T11:15:09.441Z,100630.81
2023-03-05T11:17:38.498Z,100624.41
2023-03-05T11:20:20.109Z,100622.00
2023-03-05T11:23:08.303Z,100612.19
2023-03-05T11:25:52.576Z,100618.31
2023-03-05T11:28:32.329Z,100612.00
2023-03-05T11:31:18.197Z,100608.81
2023-03-05T11:34:01.031Z,100602.09
2023-03-05T11:36:33.859Z,100608.75
2023-03-05T11:39:10.569Z,100602.72
2023-03-05T11:41:55.629Z,100594.69
2023-03-05T11:44:46.683Z,100591.50
2023-03-05T11:47:31.935Z,100584.59
2023-03-05T11:50:13.515Z,100581.13
2023-03-05T11:52:46.333Z,100581.38
2023-03-05T11:55:16.434Z,100573.06
2023-03-05T11:58:07.799Z,100562.34
2023-03-05T12:00:36.569Z,100561.72
2023-03-05T12:03:09.916Z,100550.03
2023-03-05T12:05:37.937Z,100551.25
2023-03-05T12:08:05.779Z,100550.69
2023-03-05T12:10:32.266Z,100549.47
2023-03-05T12:13:10.543Z,100542.34
2023-03-05T12:15:45.058Z,100532.13
2023-03-05T12:18:33.195Z,100530.31
2023-03-05T12:21:18.330Z,100535.00
2023-03-05T12:23:47.791Z,100526.63
2023-03-05T12:26:14.490Z,100520.09
2023-03-05T12:28:40.796Z,100514.81
2023-03-05T12:31:10.397Z,100515.69
2023-03-05T12:33:38.926Z,100510.44
2023-03-05T12:36:17.690Z,100509.84
2023-03-05T12:38:48.512Z,100507.78
2023-03-05T12:41:24.945Z,100509.59
2023-03-05T12:44:04.872Z,100505.22
2023-03-05T12:46:33.173Z,100502.81
2023-03-05T12:48:59.645Z,100492.75
2023-03-05T12:51:38.186Z,100481.44
2023-03-05T12:54:28.938Z,100494.97
2023-03-05T12:57:01.476Z,100483.66
2023-03-05T13:00:09.025Z,100467.81
2023-03-05T13:02:43.887Z,100469.50
2023-03-05T13:05:21.607Z,100468.50
2023-03-05T13:07:49.154Z,100453.19
2023-03-05T13:10:29.464Z,100465.25
2023-03-05T13:12:57.344Z,100455.09
2023-03-05T13:15:26.232Z,100461.72
2023-03-05T13:17:57.361Z,100455.91
2023-03-05T13:20:28.827Z,100453.31
2023-03-05T13:23:20.547Z,100451.06
2023-03-05T13:26:15.063Z,100448.16
2023-03-05T13:28:42.767Z,100449.94
2023-03-05T13:31:18.668Z,100454.19
2023-03-05T13:33:54.515Z,100452.28
2023-03-05T13:36:22.208Z,100446.69
2023-03-05T13:38:48.798Z,100452.41
2023-03-05T13:41:15.081Z,100448.28
2023-03-05T13:43:50.593Z,100455.47
2023-03-05T13:46:43.479Z,100445.16
2023-03-05T13:49:24.423Z,100434.72
2023-03-05T13:51:53.575Z,100436.63
2023-03-05T13:54:20.692Z,100430.94
2023-03-05T13:56:58.668Z,100432.88
2023-03-05T13:59:28.988Z,100434.00
2023-03-05T14:01:57.076Z,100427.75
2023-03-05T14:04:30.835Z,100430.38
2023-03-05T14:07:03.798Z,100422.72
2023-03-05T14:09:39.477Z,100414.47
2023-03-05T14:12:15.547Z,100420.81
2023-03-05T14:14:43.670Z,100414.47
2023-03-05T14:17:23.352Z,100403.88
2023-03-05T14:19:50.926Z,100415.81
2023-03-05T14:22:32.934Z,100422.13
2023-03-05T14:24:59.461Z,100425.38
2023-03-05T14:27:25.971Z,100420.50
2023-03-05T14:29:52.533Z,100406.06
2023-03-05T14:32:28.409Z,100404.78
2023-03-05T14:34:57.924Z,100401.59
2023-03-05T14:37:29.413Z,100396.78
2023-03-05T14:40:20.640Z,100387.94
2023-03-05T14:42:57.651Z,100388.50
2023-03-05T14:45:25.090Z,100378.88
2023-03-05T14:47:53.037Z,100382.03
2023-03-05T14:50:24.723Z,100387.09
2023-03-05T14:52:59.562Z,100379.81
2023-03-05T14:55:30.965Z,100385.44
2023-03-05T14:58:10.460Z,100387.84
2023-03-05T15:00:37.133Z,100397.34
2023-03-05T15:03:03.881Z,100394.72
2023-03-05T15:05:30.386Z,100393.75
2023-03-05T15:07:56.916Z,100391.69
2023-03-05T15:10:24.792Z,100398.00
2023-03-05T15:12:53.149Z,100383.09
2023-03-05T15:15:21.126Z,100382.88
2023-03-05T15:17:49.696Z,100384.34
2023-03-05T15:20:27.561Z,100373.41
2023-03-05T15:22:54.129Z,100373.31
2023-03-05T15:25:22.232Z,100366.19
2023-03-05T15:27:50.767Z,100371.72
2023-03-05T15:30:23.299Z,100369.59
2023-03-05T15:32:50.842Z,100369.13
2023-03-05T15:35:17.309Z,100367.91
2023-03-05T15:37:43.808Z,100368.88
2023-03-05T15:40:10.763Z,100367.75
2023-03-05T15:42:37.199Z,100359.88
2023-03-05T15:45:04.060Z,100360.59
2023-03-05T15:47:33.345Z,100348.63
2023-03-05T15:49:59.956Z,100345.34
2023-03-05T15:52:26.410Z,100336.75
2023-03-05T15:54:52.811Z,100336.03
2023-03-05T15:57:22.317Z,100342.94
2023-03-05T15:59:48.793Z,100343.72
2023-03-05T16:02:15.360Z,100343.72
2023-03-05T16:04:41.770Z,100336.16
2023-03-05T16:07:08.589Z,100339.69
2023-03-05T16:09:37.849Z,100329.41
2023-03-05T16:12:07.434Z,100330.38
2023-03-05T16:14:33.860Z,100325.34
2023-03-05T16:17:01.286Z,100323.72
2023-03-05T16:19:27.866Z,100313.59
2023-03-05T16:21:54.297Z,100324.03
2023-03-05T16:24:20.703Z,100317.19
2023-03-05T16:26:47.140Z,100330.13
2023-03-05T16:29:13.581Z,100315.50
2023-03-05T16:31:44.914Z,100308.53
2023-03-05T16:34:13.986Z,100305.97
2023-03-05T16:36:46.755Z,100308.38
2023-03-05T16:39:13.157Z,100301.41
2023-03-05T16:41:39.660Z,100298.81
2023-03-05T16:44:06.084Z,100310.06
2023-03-05T16:46:34.676Z,100301.41
2023-03-05T16:49:01.581Z,100302.22
2023-03-05T16:51:27.993Z,100301.41
2023-03-05T16:53:55.708Z,100297.88
2023-03-05T16:56:22.339Z,100301.22
2023-03-05T16:58:50.531Z,100297.69
2023-03-05T17:01:20.001Z,100301.13
2023-03-05T17:03:47.363Z,100300.25
2023-03-05T17:06:17.697Z,100307.97
2023-03-05T17:08:45.453Z,100298.56
2023-03-05T17:11:12.616Z,100301.06
2023-03-05T17:13:39.532Z,100306.22
2023-03-05T17:16:07.039Z,100303.00
2023-03-05T17:18:33.831Z,100291.13
2023-03-05T17:21:01.310Z,100290.22
2023-03-05T17:23:27.866Z,100284.22
2023-03-05T17:25:54.601Z,100285.00
2023-03-05T17:28:21.195Z,100296.19
2023-03-05T17:30:47.644Z,100280.66
2023-03-05T17:33:14.143Z,100267.91
2023-03-05T17:35:46.948Z,100261.97
2023-03-05T17:38:14.214Z,100274.00
2023-03-05T17:40:40.621Z,100289.50
2023-03-05T17:43:07.026Z,100296.25
2023-03-05T17:45:35.306Z,100293.75
2023-03-05T17:48:01.905Z,100292.06
2023-03-05T17:50:28.707Z,100285.00
2023-03-05T17:52:55.326Z,100283.16
2023-03-05T17:55:24.600Z,100284.03
2023-03-05T17:57:51.631Z,100285.78
2023-03-05T18:00:23.988Z,100281.47
2023-03-05T18:02:50.789Z,100273.75
2023-03-05T18:05:18.603Z,100275.34
2023-03-05T18:07:45.102Z,100269.34
2023-03-05T18:10:12.526Z,100264.19
2023-03-05T18:12:39.273Z,100266.69
2023-03-05T18:15:07.151Z,100264.94
2023-03-05T18:17:33.567Z,100261.41
2023-03-05T18:20:01.624Z,100245.97
2023-03-05T18:22:30.062Z,100244.22
2023-03-05T18:24:58.004Z,100244.06
2023-03-05T18:27:24.926Z,100236.16
2023-03-05T18:29:54.114Z,100229.13
2023-03-05T18:32:21.916Z,100239.47
2023-03-05T18:34:50.519Z,100240.28
2023-03-05T18:37:17.070Z,100229.91
2023-03-05T18:39:43.484Z,100228.16
2023-03-05T18:42:12.598Z,100218.59
2023-03-05T18:44:39.110Z,100231.38
2023-03-05T18:47:05.529Z,100227.06
2023-03-05T18:49:32.053Z,100226.25
2023-03-05T18:51:58.555Z,100223.75
2023-03-05T18:54:25.045Z,100219.41
2023-03-05T18:56:51.456Z,100218.53
2023-03-05T18:59:17.885Z,100215.09
2023-03-05T19:01:44.415Z,100215.09
2023-03-05T19:04:11.265Z,100220.22
2023-03-05T19:06:38.400Z,100220.31
2023-03-05T19:09:12.045Z,100221.09
2023-03-05T19:11:38.465Z,100220.31
2023-03-05T19:14:04.908Z,100220.38
2023-03-05T19:16:38.176Z,100229.78
2023-03-05T19:19:14.060Z,100228.00
2023-03-05T19:21:41.255Z,100221.81
2023-03-05T19:24:08.226Z,100220.78
2023-03-05T19:26:34.839Z,100222.22
2023-03-05T19:29:02.119Z,100220.28
2023-03-05T19:31:28.545Z,100221.97
2023-03-05T19:33:55.961Z,100214.19
2023-03-05T19:36:22.569Z,100218.28
2023-03-05T19:38:49.747Z,100212.94
2023-03-05T19:41:17.884Z,100211.16
2023-03-05T19:43:44.466Z,100203.25
2023-03-05T19:46:11.042Z,100206.50
2023-03-05T19:48:38.224Z,100197.03
2023-03-05T19:51:09.770Z,100200.41
2023-03-05T19:53:36.182Z,100207.28
2023-03-05T19:56:03.904Z,100192.69
2023-03-05T19:58:30.336Z,100193.50
2023-03-05T20:00:56.775Z,100189.16
2023-03-05T20:03:23.190Z,100186.59
2023-03-05T20:05:49.804Z,100189.97
2023-03-05T20:08:16.204Z,100183.75
2023-03-05T20:10:42.661Z,100182.00
2023-03-05T20:13:09.094Z,100184.50
2023-03-05T20:15:35.580Z,100177.66
2023-03-05T20:18:02.000Z,100175.81
2023-03-05T20:20:30.882Z,100166.38
2023-03-05T20:22:57.473Z,100172.47
2023-03-05T20:25:24.850Z,100164.75
2023-03-05T20:27:51.921Z,100161.31
2023-03-05T20:30:19.093Z,100157.84
2023-03-05T20:32:45.611Z,100158.50
2023-03-05T20:35:15.007Z,100161.88
2023-03-05T20:37:49.256Z,100152.50
2023-03-05T20:40:16.556Z,100162.69
2023-03-05T20:42:43.184Z,100154.03
2023-03-05T20:45:09.929Z,100161.88
2023-03-05T20:47:40.697Z,100155.13
2023-03-05T20:50:11.457Z,100149.84
2023-03-05T20:52:38.558Z,100147.34
2023-03-05T20:55:06.202Z,100149.84
2023-03-05T20:57:32.672Z,100142.16
2023-03-05T21:00:00.290Z,100137.09
2023-03-05T21:02:27.370Z,100136.19
2023-03-05T21:04:53.792Z,100129.22
2023-03-05T21:07:20.242Z,100135.31
2023-03-05T21:09:46.654Z,100131.00
2023-03-05T21:12:13.092Z,100130.91
2023-03-05T21:14:40.718Z,100127.47
2023-03-05T21:17:07.944Z,100120.72
2023-03-05T21:19:34.486Z,100122.41
2023-03-05T21:22:00.968Z,100115.50
2023-03-05T21:24:32.748Z,100109.50
2023-03-05T21:26:59.222Z,100112.13
2023-03-05T21:29:25.662Z,100106.13
2023-03-05T21:31:52.142Z,100109.50
2023-03-05T21:34:19.474Z,100107.00
2023-03-05T21:36:45.905Z,100105.47
2023-03-05T21:39:12.311Z,100089.91
2023-03-05T21:41:38.717Z,100091.75
2023-03-05T21:44:05.923Z,100086.75
2023-03-05T21:46:32.521Z,100084.19
2023-03-05T21:48:58.929Z,100088.38
2023-03-05T21:51:30.514Z,100075.63
2023-03-05T21:53:56.917Z,100078.19
2023-03-05T21:56:25.213Z,100072.97
2023-03-05T21:58:52.580Z,100074.75
2023-03-05T22:01:20.984Z,100066.16
2023-03-05T22:03:48.627Z,100060.94
2023-03-05T22:06:16.766Z,100055.00
2023-03-05T22:08:43.201Z,100064.31
2023-03-05T22:11:10.896Z,100053.09
2023-03-05T22:13:37.742Z,100053.03
2023-03-05T22:16:04.825Z,100045.22
2023-03-05T22:18:32.045Z,100044.31
2023-03-05T22:20:59.170Z,100048.44
2023-03-05T22:23:29.144Z,100033.91
2023-03-05T22:26:01.464Z,100033.03
2023-03-05T22:28:28.632Z,100041.53
2023-03-05T22:30:55.104Z,100038.81
2023-03-05T22:33:23.080Z,100029.38
2023-03-05T22:35:50.106Z,100026.72
2023-03-05T22:38:16.864Z,100031.13
2023-03-05T22:40:44.864Z,100031.84
2023-03-05T22:43:12.223Z,100023.34
2023-03-05T22:45:38.652Z,100017.34
2023-03-05T22:48:05.541Z,100012.28
2023-03-05T22:50:31.969Z,100017.47
2023-03-05T22:52:59.224Z,100014.84
2023-03-05T22:55:25.642Z,100011.31
2023-03-05T22:57:52.080Z,100012.03
2023-03-05T23:00:23.379Z,100008.69
2023-03-05T23:02:51.020Z,100009.44
2023-03-05T23:05:18.140Z,100008.69
2023-03-05T23:07:45.326Z,100005.31
2023-03-05T23:10:15.277Z,100006.19
2023-03-05T23:12:46.234Z,100006.25
2023-03-05T23:15:14.602Z,100004.66
2023-03-05T23:17:41.125Z,99999.59
2023-03-05T23:20:10.117Z,99994.31
2023-03-05T23:22:37.541Z,99990.06
2023-03-05T23:25:04.190Z,99994.22
2023-03-05T23:27:30.617Z,99998.56
2023-03-05T23:30:21.293Z,99991.66
2023-03-05T23:33:07.094Z,99993.28
2023-03-05T23:35:38.914Z,99989.91
2023-03-05T23:38:08.111Z,99983.00
2023-03-05T23:40:40.639Z,99983.00
2023-03-05T23:43:07.565Z,99980.34
2023-03-05T23:45:34.301Z,99974.41
2023-03-05T23:48:01.212Z,99980.53
2023-03-05T23:50:33.220Z,99976.09
2023-03-05T23:53:02.010Z,99972.56
2023-03-05T23:55:31.964Z,99965.69
2023-03-05T23:57:58.559Z,99966.47
